Layton City
, Layton
Last Weather Update:05/18/2012 10:00:00 AM
Date
ETo
ETc
Rain
Irrigation
Req
Temp
Max
Temp
Min
Temp
Avg
Avg RH
Avg Wind
Avg Solar
inches
inches
incehs
inches
F
F
F
%
%
watts/m2
04/01/2012 0.09" 0.00" 0.02" -0.01" 61.9° 35.0° 44.9° 52.2% 8.7 MPH 121.8w/m2
04/02/2012 0.15" 0.01" 0.00" 0.01" 53.6° 29.4° 41.8° 37.3% 6.1 MPH 291.8w/m2
04/03/2012 0.00" 0.00" 0.00" 0.00" 45.8° 36.3° 40.1° 52.7% 2.7 MPH 0.0w/m2
04/04/2012 0.18" 0.01" 0.00" 0.01" 70.3° 41.6° 54.5° 41.8% 4.6 MPH 271.2w/m2
04/05/2012 0.11" 0.01" 0.00" 0.01" 54.8° 35.2° 44.5° 45.0% 3.3 MPH 219.9w/m2
04/06/2012 0.09" 0.01" 0.13" -0.09" 46.1° 29.7° 37.5° 54.9% 5.2 MPH 204.2w/m2
04/07/2012 0.14" 0.02" 0.00" 0.02" 58.6° 26.9° 43.4° 39.8% 2.6 MPH 268.0w/m2
04/08/2012 0.17" 0.03" 0.00" 0.03" 71.4° 34.7° 53.8° 33.7% 2.7 MPH 290.0w/m2
04/09/2012 0.18" 0.03" 0.00" 0.03" 76.2° 41.8° 58.7° 26.8% 2.5 MPH 286.1w/m2
04/10/2012 0.20" 0.04" 0.00" 0.04" 79.2° 46.3° 62.5° 26.9% 4.2 MPH 260.3w/m2
04/11/2012 0.17" 0.04" 0.24" -0.15" 74.2° 44.0° 58.8° 37.2% 6.8 MPH 191.0w/m2
04/12/2012 0.00" 0.00" 0.01" -0.01" 46.5° 44.3° 45.5° 77.0% 7.5 MPH 0.0w/m2
04/13/2012 0.13" 0.03" 0.08" -0.03" 55.1° 36.2° 45.3° 64.9% 4.2 MPH 219.0w/m2
04/14/2012 0.09" 0.03" 0.18" -0.12" 55.5° 39.0° 45.1° 70.5% 3.6 MPH 169.3w/m2
04/15/2012 0.15" 0.04" 0.00" 0.04" 56.1° 37.1° 47.0° 54.1% 4.3 MPH 293.4w/m2
04/16/2012 0.00" 0.00" 0.00" 0.00" 50.6° 46.1° 49.4° 27.7% 3.3 MPH 0.0w/m2
04/17/2012 0.12" 0.04" 0.25" -0.16" 60.2° 43.3° 51.3° 61.1% 4.3 MPH 222.4w/m2
04/18/2012 0.00" 0.00" 0.00" 0.00" 52.2° 50.3° 51.3° 66.4% 3.4 MPH 0.0w/m2
04/19/2012 0.15" 0.06" 0.02" 0.04" 61.2° 45.1° 52.3° 61.5% 3.3 MPH 278.7w/m2
04/20/2012 0.17" 0.07" 0.00" 0.07" 69.8° 44.7° 57.0° 54.9% 2.1 MPH 298.7w/m2
04/21/2012 0.19" 0.08" 0.00" 0.08" 79.4° 45.9° 63.4° 40.6% 1.7 MPH 300.5w/m2
04/22/2012 0.20" 0.09" 0.00" 0.09" 84.9° 49.4° 68.2° 31.6% 1.7 MPH 297.8w/m2
04/23/2012 0.20" 0.09" 0.00" 0.09" 85.3° 56.4° 70.7° 32.9% 2.7 MPH 263.3w/m2
04/24/2012 0.24" 0.12" 0.00" 0.12" 84.0° 59.7° 72.7° 26.8% 3.4 MPH 319.1w/m2
04/25/2012 0.16" 0.08" 0.00" 0.08" 75.1° 60.9° 67.4° 39.2% 5.5 MPH 176.5w/m2
04/26/2012 0.15" 0.08" 0.31" -0.17" 72.8° 42.1° 62.7° 47.5% 7.6 MPH 116.4w/m2
04/27/2012 0.15" 0.08" 0.23" -0.11" 63.8° 38.1° 44.6° 55.2% 6.0 MPH 266.9w/m2
04/28/2012 0.15" 0.08" 0.00" 0.08" 53.2° 30.2° 43.5° 43.6% 2.3 MPH 308.8w/m2
04/29/2012 0.16" 0.09" 0.00" 0.09" 60.7° 41.6° 50.4° 46.1% 2.5 MPH 327.6w/m2
04/30/2012 0.13" 0.08" 0.00" 0.08" 70.3° 41.5° 54.9° 44.1% 3.5 MPH 285.9w/m2
Totals: 4.01" 1.33" 1.47" 0.16" 85.3° 26.9° 52.8° 46.5% 4.1 MPH 218.3w/m2